Time;durP1;ratioP1;P1;durP2;ratioP2;P2;SDS_P1;SDS_P2;PMS_P1;PMS_P2;Temp;Humidity;BMP_temperature;BMP_pressure;BME280_temperature;BME280_humidity;BME280_pressure;Samples;Min_cycle;Max_cycle;Signal;HPM_P1;HPM_P2
2022/07/10 00:01:06;;;;;;;;;;;512.50;1945.60;;;;;;5090555;28;19920;-57
2022/07/10 00:03:32;;;;;;;;;;;512.50;1945.60;;;;;;5090336;28;20407;-59
2022/07/10 00:05:57;;;;;;;;;;;512.60;1945.60;;;;;;5090810;28;20336;-60
2022/07/10 00:08:23;;;;;;;;;;;512.60;1945.60;;;;;;5090532;28;19908;-59
2022/07/10 00:10:49;;;;;;;;;;;512.60;1945.60;;;;;;5090339;28;20291;-59
2022/07/10 00:13:14;;;;;;;;;;;512.60;1945.60;;;;;;5090422;28;19920;-59
2022/07/10 00:15:40;;;;;;;;;;;512.60;1945.60;;;;;;5090574;28;19947;-59
2022/07/10 00:18:05;;;;;;;;;;;512.60;1945.60;;;;;;5090480;28;19919;-59
2022/07/10 00:20:32;;;;;;;;;;;512.60;1945.60;;;;;;5090186;28;19908;-59
2022/07/10 00:22:57;;;;;;;;;;;512.60;1945.60;;;;;;5090469;28;19995;-58
2022/07/10 00:25:23;;;;;;;;;;;512.60;1920.00;;;;;;5090147;28;19919;-59
2022/07/10 00:27:48;;;;;;;;;;;512.60;1945.60;;;;;;5090285;28;19934;-59
2022/07/10 00:30:14;;;;;;;;;;;512.60;1920.00;;;;;;5090444;28;19934;-59
2022/07/10 00:32:39;;;;;;;;;;;512.60;1920.00;;;;;;5090217;28;20002;-60
2022/07/10 00:35:06;;;;;;;;;;;512.60;1920.00;;;;;;5093951;28;19909;-59
2022/07/10 00:37:31;;;;;;;;;;;512.60;1920.00;;;;;;5094243;28;20003;-59
2022/07/10 00:39:57;;;;;;;;;;;512.50;1920.00;;;;;;5094349;28;20002;-58
2022/07/10 00:42:22;;;;;;;;;;;512.50;1920.00;;;;;;5093938;28;19944;-61
2022/07/10 00:44:48;;;;;;;;;;;512.50;1920.00;;;;;;5094189;28;20003;-58
2022/07/10 00:47:17;;;;;;;;;;;512.50;1920.00;;;;;;5093994;28;20277;-60
2022/07/10 00:49:42;;;;;;;;;;;512.50;1920.00;;;;;;5094218;28;20255;-59
2022/07/10 00:52:10;;;;;;;;;;;512.60;1920.00;;;;;;5093994;28;19908;-58
2022/07/10 00:54:36;;;;;;;;;;;512.60;1920.00;;;;;;5094166;28;20076;-59
2022/07/10 00:57:03;;;;;;;;;;;512.60;1920.00;;;;;;5093695;28;19909;-59
2022/07/10 00:59:30;;;;;;;;;;;512.60;1920.00;;;;;;5093724;28;20374;-61
2022/07/10 01:01:55;;;;;;;;;;;512.60;1920.00;;;;;;5093804;28;19916;-58
2022/07/10 01:04:21;;;;;;;;;;;512.50;1920.00;;;;;;5093823;28;20265;-60
2022/07/10 01:06:47;;;;;;;;;;;512.60;1920.00;;;;;;5093671;28;19938;-58
2022/07/10 01:09:12;;;;;;;;;;;512.60;1920.00;;;;;;5093689;28;19916;-59
2022/07/10 01:11:38;;;;;;;;;;;512.60;1920.00;;;;;;5093554;28;19912;-59
2022/07/10 01:14:04;;;;;;;;;;;512.60;1920.00;;;;;;5093338;28;20012;-59
2022/07/10 01:16:30;;;;;;;;;;;512.60;1920.00;;;;;;5093554;28;19912;-59
2022/07/10 01:18:56;;;;;;;;;;;512.50;1894.40;;;;;;5093689;28;20002;-58
2022/07/10 01:21:28;;;;;;;;;;;512.50;1920.00;;;;;;5093236;28;20365;-59
2022/07/10 01:23:53;;;;;;;;;;;512.50;1920.00;;;;;;5093348;28;19959;-59
2022/07/10 01:26:20;;;;;;;;;;;512.50;1920.00;;;;;;5093242;28;19982;-59
2022/07/10 01:28:47;;;;;;;;;;;512.50;1894.40;;;;;;5093218;28;19998;-58
2022/07/10 01:31:12;;;;;;;;;;;512.50;1920.00;;;;;;5093188;28;19912;-58
2022/07/10 01:33:38;;;;;;;;;;;512.50;1920.00;;;;;;5093259;28;19917;-56
2022/07/10 01:36:04;;;;;;;;;;;512.50;1920.00;;;;;;5093224;28;19912;-59
2022/07/10 01:38:29;;;;;;;;;;;512.40;1920.00;;;;;;5093279;28;20377;-59
2022/07/10 01:40:55;;;;;;;;;;;512.40;1920.00;;;;;;5092937;28;20001;-58
2022/07/10 01:43:20;;;;;;;;;;;512.40;1894.40;;;;;;5092786;28;20281;-59
2022/07/10 01:45:46;;;;;;;;;;;512.30;1920.00;;;;;;5092483;28;19912;-60
2022/07/10 01:48:12;;;;;;;;;;;512.30;1920.00;;;;;;5092841;28;20417;-60
2022/07/10 01:50:38;;;;;;;;;;;512.10;1945.60;;;;;;5093203;28;19908;-58
2022/07/10 01:53:05;;;;;;;;;;;512.10;1920.00;;;;;;5092920;28;19908;-58
2022/07/10 01:55:31;;;;;;;;;;;512.00;1945.60;;;;;;5092522;28;19908;-59
2022/07/10 01:57:57;;;;;;;;;;;512.00;1945.60;;;;;;5092900;28;19915;-58
2022/07/10 02:00:23;;;;;;;;;;;512.00;1945.60;;;;;;5092417;28;19942;-59
2022/07/10 02:05:35;;;;;;;;;;;487.20;1945.60;;;;;;5090441;28;19969;-59
2022/07/10 02:08:03;;;;;;;;;;;487.20;1971.20;;;;;;5090215;28;19912;-59
2022/07/10 02:10:28;;;;;;;;;;;487.10;1971.20;;;;;;5090220;28;19920;-59
2022/07/10 02:12:55;;;;;;;;;;;487.10;1971.20;;;;;;5090206;28;19912;-58
2022/07/10 02:15:21;;;;;;;;;;;487.00;1971.20;;;;;;5089938;28;20281;-59
2022/07/10 02:17:47;;;;;;;;;;;487.00;1996.80;;;;;;5090150;28;19909;-59
2022/07/10 02:20:12;;;;;;;;;;;487.00;1996.80;;;;;;5090035;28;19915;-58
2022/07/10 02:22:38;;;;;;;;;;;486.90;1996.80;;;;;;5090030;28;19908;-58
2022/07/10 02:25:04;;;;;;;;;;;486.90;1996.80;;;;;;5089847;28;20381;-58
2022/07/10 02:27:29;;;;;;;;;;;486.80;1996.80;;;;;;5089964;28;20437;-59
2022/07/10 02:29:55;;;;;;;;;;;486.80;1996.80;;;;;;5089950;28;19908;-58
2022/07/10 02:32:21;;;;;;;;;;;486.70;2022.40;;;;;;5072496;28;20333;-58
2022/07/10 02:34:47;;;;;;;;;;;486.70;1996.80;;;;;;5089992;28;20011;-58
2022/07/10 02:37:13;;;;;;;;;;;486.70;1996.80;;;;;;5089671;28;19999;-60
2022/07/10 02:39:38;;;;;;;;;;;486.70;1996.80;;;;;;5089878;28;20008;-58
2022/07/10 02:42:04;;;;;;;;;;;486.70;2022.40;;;;;;5089783;28;19912;-58
2022/07/10 02:44:29;;;;;;;;;;;486.60;2022.40;;;;;;5091929;28;19912;-59
2022/07/10 02:46:55;;;;;;;;;;;486.60;2022.40;;;;;;5091810;28;19916;-59
2022/07/10 02:49:21;;;;;;;;;;;486.60;2022.40;;;;;;5091542;28;20370;-58
2022/07/10 02:51:46;;;;;;;;;;;486.50;2048.00;;;;;;5091768;28;20311;-58
2022/07/10 02:54:12;;;;;;;;;;;486.50;2048.00;;;;;;5091586;28;19915;-58
2022/07/10 02:56:37;;;;;;;;;;;486.40;2048.00;;;;;;5090926;28;19908;-59
2022/07/10 02:59:03;;;;;;;;;;;486.40;2048.00;;;;;;5091415;28;19961;-57
2022/07/10 03:01:28;;;;;;;;;;;486.40;2048.00;;;;;;5091445;28;19971;-58
2022/07/10 03:03:54;;;;;;;;;;;486.40;2048.00;;;;;;5091275;28;20262;-58
2022/07/10 03:06:19;;;;;;;;;;;486.40;2048.00;;;;;;5091336;28;19916;-60
2022/07/10 03:08:45;;;;;;;;;;;486.40;2073.60;;;;;;5091541;28;19966;-58
2022/07/10 03:11:11;;;;;;;;;;;461.70;2073.60;;;;;;5091102;28;19912;-58
2022/07/10 03:13:36;;;;;;;;;;;461.70;2073.60;;;;;;5091276;28;19916;-59
2022/07/10 03:16:02;;;;;;;;;;;461.70;2073.60;;;;;;5091077;28;20058;-58
2022/07/10 03:18:28;;;;;;;;;;;486.40;2073.60;;;;;;5091412;28;19908;-57
2022/07/10 03:20:53;;;;;;;;;;;486.40;2073.60;;;;;;5091131;28;19908;-59
2022/07/10 03:23:19;;;;;;;;;;;486.40;2073.60;;;;;;5091295;28;19912;-60
2022/07/10 03:25:45;;;;;;;;;;;486.50;2073.60;;;;;;5091233;28;19920;-58
2022/07/10 03:28:10;;;;;;;;;;;486.50;2073.60;;;;;;5090927;28;19908;-57
2022/07/10 03:30:36;;;;;;;;;;;486.60;2048.00;;;;;;5091010;28;19912;-58
2022/07/10 03:33:03;;;;;;;;;;;486.70;2048.00;;;;;;5090835;28;19908;-58
2022/07/10 03:35:31;;;;;;;;;;;486.70;2048.00;;;;;;5090897;28;19912;-58
2022/07/10 03:37:56;;;;;;;;;;;486.70;2048.00;;;;;;5091209;28;19987;-57
2022/07/10 03:40:22;;;;;;;;;;;486.80;2048.00;;;;;;5090546;28;20400;-58
2022/07/10 03:42:48;;;;;;;;;;;486.80;2073.60;;;;;;5090682;28;20007;-58
2022/07/10 03:45:13;;;;;;;;;;;486.80;2073.60;;;;;;5090623;28;19912;-59
2022/07/10 03:47:39;;;;;;;;;;;486.80;2073.60;;;;;;5090840;28;19917;-58
2022/07/10 03:50:05;;;;;;;;;;;486.80;2073.60;;;;;;5090456;28;19951;-58
2022/07/10 03:52:30;;;;;;;;;;;486.80;2073.60;;;;;;5090785;28;19914;-58
2022/07/10 03:54:56;;;;;;;;;;;486.80;2073.60;;;;;;5090659;28;19908;-58
2022/07/10 04:00:06;;;;;;;;;;;486.80;2073.60;;;;;;5090788;28;20384;-57
2022/07/10 04:02:32;;;;;;;;;;;486.80;2073.60;;;;;;5090322;28;19990;-57
2022/07/10 04:04:57;;;;;;;;;;;486.90;2099.20;;;;;;5090764;28;20361;-58
2022/07/10 04:07:23;;;;;;;;;;;487.00;2073.60;;;;;;5091762;28;19999;-58
2022/07/10 04:09:48;;;;;;;;;;;487.00;2099.20;;;;;;5097339;28;19916;-58
2022/07/10 04:12:14;;;;;;;;;;;487.00;2099.20;;;;;;5096940;28;19918;-58
2022/07/10 04:14:40;;;;;;;;;;;487.10;2099.20;;;;;;5097253;28;19939;-59
2022/07/10 04:17:05;;;;;;;;;;;487.10;2099.20;;;;;;5097321;28;19908;-58
2022/07/10 04:19:31;;;;;;;;;;;487.10;2099.20;;;;;;5097030;28;19909;-57
2022/07/10 04:21:56;;;;;;;;;;;487.20;2073.60;;;;;;5097231;28;20064;-58
2022/07/10 04:24:22;;;;;;;;;;;512.00;2073.60;;;;;;5096992;28;19908;-58
2022/07/10 04:26:48;;;;;;;;;;;512.10;2073.60;;;;;;5096881;28;19998;-58
2022/07/10 04:29:13;;;;;;;;;;;512.20;2073.60;;;;;;5096934;28;20347;-59
2022/07/10 04:31:39;;;;;;;;;;;512.40;2048.00;;;;;;5096998;28;19912;-58
2022/07/10 04:34:05;;;;;;;;;;;512.40;2073.60;;;;;;5096797;28;19915;-58
2022/07/10 04:36:31;;;;;;;;;;;512.50;2048.00;;;;;;5096839;28;19912;-58
2022/07/10 04:38:56;;;;;;;;;;;512.80;2048.00;;;;;;5097250;28;19916;-58
2022/07/10 04:41:22;;;;;;;;;;;563.30;1996.80;;;;;;5096457;28;19912;-57
2022/07/10 04:43:47;;;;;;;;;;;666.10;1664.00;;;;;;5096985;28;19912;-58
2022/07/10 04:46:13;;;;;;;;;;;742.40;1510.40;;;;;;5096863;28;19916;-58
2022/07/10 04:48:38;;;;;;;;;;;793.80;1382.40;;;;;;5097023;28;20340;-59
2022/07/10 04:51:04;;;;;;;;;;;820.10;1280.00;;;;;;5096759;28;19915;-58
2022/07/10 04:53:29;;;;;;;;;;;870.50;1228.80;;;;;;5096964;28;19908;-58
2022/07/10 04:55:55;;;;;;;;;;;871.10;1152.00;;;;;;5096662;28;19908;-57
2022/07/10 04:58:20;;;;;;;;;;;896.20;1126.40;;;;;;5096813;28;20011;-57
2022/07/10 05:00:46;;;;;;;;;;;896.90;1100.80;;;;;;5096612;28;19920;-57
2022/07/10 05:03:12;;;;;;;;;;;947.20;1049.60;;;;;;5096778;28;19915;-57
2022/07/10 05:05:37;;;;;;;;;;;947.80;1024.00;;;;;;5096740;28;19917;-58
2022/07/10 05:08:03;;;;;;;;;;;947.80;1024.00;;;;;;5096685;28;19908;-59
2022/07/10 05:10:29;;;;;;;;;;;947.60;1024.00;;;;;;5096858;28;20389;-58
2022/07/10 05:12:54;;;;;;;;;;;922.30;1049.60;;;;;;5096425;28;19912;-59
2022/07/10 05:15:20;;;;;;;;;;;973.00;1024.00;;;;;;5096669;28;20416;-59
2022/07/10 05:17:45;;;;;;;;;;;973.50;998.40;;;;;;5096446;28;19914;-59
2022/07/10 05:20:11;;;;;;;;;;;973.70;998.40;;;;;;5093385;28;19916;-58
2022/07/10 05:22:36;;;;;;;;;;;998.60;998.40;;;;;;5093364;28;19962;-59
2022/07/10 05:25:02;;;;;;;;;;;999.20;972.80;;;;;;5093125;28;19955;-59
2022/07/10 05:27:28;;;;;;;;;;;999.30;972.80;;;;;;5093032;28;19966;-59
2022/07/10 05:29:53;;;;;;;;;;;1024.60;947.20;;;;;;5093257;28;19912;-59
2022/07/10 05:32:19;;;;;;;;;;;1050.00;972.80;;;;;;5092398;28;19958;-58
2022/07/10 05:34:44;;;;;;;;;;;1075.20;947.20;;;;;;5091768;28;19915;-59
2022/07/10 05:37:10;;;;;;;;;;;1075.30;896.00;;;;;;5091838;28;20281;-58
2022/07/10 05:39:36;;;;;;;;;;;;;;;;;;5091816;28;19919;-59
2022/07/10 05:42:02;;;;;;;;;;;1075.80;896.00;;;;;;5091404;28;20007;-59
2022/07/10 05:44:27;;;;;;;;;;;1075.40;921.60;;;;;;5091710;28;20437;-59
2022/07/10 05:46:53;;;;;;;;;;;1075.80;896.00;;;;;;5091294;28;19923;-59
2022/07/10 05:49:18;;;;;;;;;;;1075.70;896.00;;;;;;5091501;28;19919;-60
2022/07/10 05:51:44;;;;;;;;;;;1075.90;896.00;;;;;;5091424;28;19908;-59
2022/07/10 05:54:10;;;;;;;;;;;1101.00;896.00;;;;;;5090529;28;20352;-59
2022/07/10 05:56:35;;;;;;;;;;;1100.90;870.40;;;;;;5092464;28;19915;-59
2022/07/10 05:59:01;;;;;;;;;;;1100.80;896.00;;;;;;5092648;28;19987;-60
2022/07/10 06:01:26;;;;;;;;;;;1075.40;896.00;;;;;;5092554;28;19943;-59
2022/07/10 06:03:52;;;;;;;;;;;1050.40;896.00;;;;;;5092479;28;20001;-59
2022/07/10 06:06:17;;;;;;;;;;;1100.90;870.40;;;;;;5092639;28;19916;-60
2022/07/10 06:08:44;;;;;;;;;;;1101.60;844.80;;;;;;5092504;28;20357;-60
2022/07/10 06:11:10;;;;;;;;;;;1101.20;870.40;;;;;;5092473;28;19912;-59
2022/07/10 06:13:36;;;;;;;;;;;1101.50;844.80;;;;;;5092419;28;19947;-59
2022/07/10 06:16:03;;;;;;;;;;;1126.60;844.80;;;;;;5092341;28;19998;-60
2022/07/10 06:18:29;;;;;;;;;;;1126.40;870.40;;;;;;5092405;28;19909;-60
2022/07/10 06:20:54;;;;;;;;;;;1126.60;844.80;;;;;;5092241;28;19908;-60
2022/07/10 06:23:20;;;;;;;;;;;1101.50;844.80;;;;;;5092259;28;19908;-60
2022/07/10 06:25:46;;;;;;;;;;;1126.90;844.80;;;;;;5092219;28;19923;-60
2022/07/10 06:28:11;;;;;;;;;;;1126.60;844.80;;;;;;5092273;28;19909;-60
2022/07/10 06:30:37;;;;;;;;;;;1101.30;870.40;;;;;;5091397;28;19936;-59
2022/07/10 06:33:02;;;;;;;;;;;1076.10;844.80;;;;;;5091426;28;19912;-59
2022/07/10 06:35:28;;;;;;;;;;;1126.40;844.80;;;;;;5092147;28;19940;-60
2022/07/10 06:37:54;;;;;;;;;;;1101.40;844.80;;;;;;5091854;28;19915;-59
2022/07/10 06:40:20;;;;;;;;;;;1126.60;870.40;;;;;;5091825;28;20254;-60
2022/07/10 06:42:45;;;;;;;;;;;1126.60;844.80;;;;;;5092303;28;19912;-60
2022/07/10 06:45:11;;;;;;;;;;;1126.40;844.80;;;;;;5091718;28;20269;-60
2022/07/10 06:47:55;;;;;;;;;;;1050.00;896.00;;;;;;5091895;28;19959;-59
2022/07/10 06:50:21;;;;;;;;;;;1024.70;921.60;;;;;;5091491;28;19999;-60
2022/07/10 06:52:47;;;;;;;;;;;1101.70;844.80;;;;;;5091733;28;19999;-61
2022/07/10 06:55:13;;;;;;;;;;;1152.00;819.20;;;;;;5091528;28;19908;-60
2022/07/10 06:57:39;;;;;;;;;;;1152.90;793.60;;;;;;5091735;28;19977;-60
2022/07/10 07:00:05;;;;;;;;;;;1178.10;768.00;;;;;;5090931;28;19920;-60
2022/07/10 07:02:31;;;;;;;;;;;1177.60;793.60;;;;;;5091410;28;19908;-61
2022/07/10 07:04:56;;;;;;;;;;;1177.60;793.60;;;;;;5091459;28;20003;-60
2022/07/10 07:07:22;;;;;;;;;;;1127.10;844.80;;;;;;5091175;28;19917;-60
2022/07/10 07:09:50;;;;;;;;;;;1152.60;793.60;;;;;;5091539;28;19961;-61
2022/07/10 07:12:16;;;;;;;;;;;1152.00;844.80;;;;;;5088750;28;19912;-60
2022/07/10 07:14:42;;;;;;;;;;;1152.20;819.20;;;;;;5089528;28;19952;-60
2022/07/10 07:17:09;;;;;;;;;;;1152.10;819.20;;;;;;5089918;28;20400;-60
2022/07/10 07:25:04;;;;;;;;;;;1178.00;768.00;;;;;;5089212;28;19919;-60
2022/07/10 07:27:29;;;;;;;;;;;1177.70;768.00;;;;;;5089469;28;19916;-60
2022/07/10 07:29:55;;;;;;;;;;;1178.00;768.00;;;;;;5089479;28;19912;-61
2022/07/10 07:32:21;;;;;;;;;;;1178.10;768.00;;;;;;5089300;28;19994;-61
2022/07/10 07:34:46;;;;;;;;;;;1178.30;742.40;;;;;;5089410;28;20358;-60
2022/07/10 07:37:12;;;;;;;;;;;1203.60;768.00;;;;;;5088803;28;19925;-60
2022/07/10 07:39:37;;;;;;;;;;;1178.00;768.00;;;;;;5089421;28;19951;-61
2022/07/10 07:42:03;;;;;;;;;;;1203.30;768.00;;;;;;5088671;28;19986;-60
2022/07/10 07:44:29;;;;;;;;;;;1178.30;742.40;;;;;;5088237;28;19951;-60
2022/07/10 07:46:55;;;;;;;;;;;1152.90;768.00;;;;;;5089145;28;19927;-61
2022/07/10 07:49:21;;;;;;;;;;;1178.20;768.00;;;;;;5089045;28;20266;-61
2022/07/10 07:51:47;;;;;;;;;;;1203.90;742.40;;;;;;5088780;28;19908;-60
2022/07/10 07:54:12;;;;;;;;;;;1203.80;768.00;;;;;;5089298;28;19912;-61
2022/07/10 07:56:38;;;;;;;;;;;1203.60;768.00;;;;;;5089368;27;19909;-61
2022/07/10 07:59:04;;;;;;;;;;;1203.30;768.00;;;;;;5088904;28;19918;-59
2022/07/10 08:01:29;;;;;;;;;;;1178.20;768.00;;;;;;5088554;28;19984;-60
2022/07/10 08:03:55;;;;;;;;;;;1178.10;768.00;;;;;;5091044;28;19912;-60
2022/07/10 08:06:21;;;;;;;;;;;1177.70;793.60;;;;;;5090392;28;19916;-61
2022/07/10 08:08:46;;;;;;;;;;;1177.60;793.60;;;;;;5090582;28;19916;-60
2022/07/10 08:11:12;;;;;;;;;;;1177.80;793.60;;;;;;5090474;28;19954;-60
2022/07/10 08:13:37;;;;;;;;;;;1152.40;819.20;;;;;;5089264;28;19912;-60
2022/07/10 08:16:03;;;;;;;;;;;1101.10;870.40;;;;;;5090255;28;19915;-60
2022/07/10 08:18:29;;;;;;;;;;;1075.40;896.00;;;;;;5090567;28;20080;-59
2022/07/10 08:20:55;;;;;;;;;;;1024.70;896.00;;;;;;5090240;28;19914;-59
2022/07/10 08:23:20;;;;;;;;;;;972.80;972.80;;;;;;5088568;28;20003;-59
2022/07/10 08:25:46;;;;;;;;;;;921.60;1049.60;;;;;;5088831;28;19917;-58
2022/07/10 08:28:12;;;;;;;;;;;896.10;1049.60;;;;;;5088549;28;20007;-60
2022/07/10 08:30:37;;;;;;;;;;;845.40;1126.40;;;;;;5088768;28;19915;-60
2022/07/10 08:33:03;;;;;;;;;;;845.50;1126.40;;;;;;5088694;28;19908;-59
2022/07/10 08:35:30;;;;;;;;;;;845.20;1152.00;;;;;;5088781;28;19910;-59
2022/07/10 08:37:55;;;;;;;;;;;844.90;1152.00;;;;;;5088275;28;19914;-59
2022/07/10 08:40:22;;;;;;;;;;;819.70;1152.00;;;;;;5088641;28;19912;-60
2022/07/10 08:42:47;;;;;;;;;;;819.30;1177.60;;;;;;5088540;28;20027;-58
2022/07/10 08:45:13;;;;;;;;;;;794.20;1203.20;;;;;;5088500;28;20035;-58
2022/07/10 08:47:41;;;;;;;;;;;794.00;1203.20;;;;;;5088683;28;19913;-58
2022/07/10 08:50:12;;;;;;;;;;;768.90;1228.80;;;;;;5088260;28;19908;-59
2022/07/10 08:52:41;;;;;;;;;;;768.90;1228.80;;;;;;5088551;28;20449;-58
2022/07/10 08:55:07;;;;;;;;;;;768.60;1254.40;;;;;;5089374;28;20266;-58
2022/07/10 08:57:33;;;;;;;;;;;768.50;1254.40;;;;;;5092113;28;19908;-59
2022/07/10 08:59:59;;;;;;;;;;;768.80;1254.40;;;;;;5092217;28;19924;-58
2022/07/10 09:02:24;;;;;;;;;;;793.70;1228.80;;;;;;5091795;28;19908;-59
2022/07/10 09:04:50;;;;;;;;;;;768.90;1203.20;;;;;;5092112;28;20263;-58
2022/07/10 09:07:17;;;;;;;;;;;768.90;1203.20;;;;;;5090749;28;20285;-57
2022/07/10 09:09:53;;;;;;;;;;;768.80;1228.80;;;;;;5094172;28;20358;-59
2022/07/10 09:12:19;;;;;;;;;;;768.70;1228.80;;;;;;5093365;28;20281;-58
2022/07/10 09:14:45;;;;;;;;;;;768.20;1254.40;;;;;;5093688;28;19915;-58
2022/07/10 09:17:10;;;;;;;;;;;768.00;1280.00;;;;;;5093633;28;20259;-59
2022/07/10 09:19:36;;;;;;;;;;;768.00;1254.40;;;;;;5093598;28;20285;-58
2022/07/10 09:22:08;;;;;;;;;;;743.10;1280.00;;;;;;5094361;28;19908;-58
2022/07/10 09:24:44;;;;;;;;;;;743.10;1280.00;;;;;;5096555;28;19915;-58
2022/07/10 09:27:10;;;;;;;;;;;743.00;1280.00;;;;;;5096683;28;19920;-58
2022/07/10 09:29:46;;;;;;;;;;;743.10;1280.00;;;;;;5096673;28;19961;-59
2022/07/10 09:32:12;;;;;;;;;;;743.00;1305.60;;;;;;5095973;28;19908;-58
2022/07/10 09:34:41;;;;;;;;;;;742.90;1305.60;;;;;;5096070;28;20001;-58
2022/07/10 09:37:19;;;;;;;;;;;743.00;1305.60;;;;;;5096043;28;20379;-59
2022/07/10 09:40:01;;;;;;;;;;;743.00;1280.00;;;;;;5095896;28;19908;-58
2022/07/10 09:42:47;;;;;;;;;;;743.10;1254.40;;;;;;5096383;28;20265;-58
2022/07/10 09:45:16;;;;;;;;;;;743.00;1280.00;;;;;;5095906;28;20006;-58
2022/07/10 09:47:43;;;;;;;;;;;742.80;1254.40;;;;;;5094740;28;19912;-59
2022/07/10 09:50:22;;;;;;;;;;;743.00;1280.00;;;;;;5092057;28;19916;-58
2022/07/10 09:52:52;;;;;;;;;;;743.10;1254.40;;;;;;5091295;28;19915;-58
2022/07/10 09:55:22;;;;;;;;;;;743.00;1280.00;;;;;;5091392;28;19908;-59
2022/07/10 09:57:52;;;;;;;;;;;743.00;1305.60;;;;;;5091328;28;19908;-60
2022/07/10 10:00:18;;;;;;;;;;;742.90;1331.20;;;;;;5091050;28;19919;-60
2022/07/10 10:02:44;;;;;;;;;;;717.20;1280.00;;;;;;5090798;28;20388;-58
2022/07/10 10:05:09;;;;;;;;;;;717.20;1305.60;;;;;;5090870;28;19973;-58
2022/07/10 10:07:37;;;;;;;;;;;717.20;1305.60;;;;;;5091048;28;20377;-58
2022/07/10 10:10:04;;;;;;;;;;;717.50;1280.00;;;;;;5090659;28;19915;-59
2022/07/10 10:12:31;;;;;;;;;;;717.10;1254.40;;;;;;5090874;28;19923;-58
2022/07/10 10:14:57;;;;;;;;;;;717.40;1280.00;;;;;;5090459;28;19961;-60
2022/07/10 10:17:25;;;;;;;;;;;717.60;1228.80;;;;;;5090639;28;19912;-57
2022/07/10 10:22:38;;;;;;;;;;;742.40;1254.40;;;;;;5090963;28;19931;-58
2022/07/10 10:25:04;;;;;;;;;;;742.50;1254.40;;;;;;5090493;28;19915;-58
2022/07/10 10:27:30;;;;;;;;;;;717.70;1280.00;;;;;;5090143;28;20373;-58
2022/07/10 10:29:57;;;;;;;;;;;717.40;1280.00;;;;;;5090718;28;20361;-59
2022/07/10 10:32:23;;;;;;;;;;;717.70;1280.00;;;;;;5090395;28;19920;-60
2022/07/10 10:34:58;;;;;;;;;;;742.40;1305.60;;;;;;5090718;28;19908;-57
2022/07/10 10:37:26;;;;;;;;;;;717.40;1280.00;;;;;;5090155;28;19914;-58
2022/07/10 10:39:55;;;;;;;;;;;717.70;1254.40;;;;;;5090477;28;19908;-60
2022/07/10 10:42:34;;;;;;;;;;;742.50;1305.60;;;;;;5092066;28;20273;-59
2022/07/10 10:45:18;;;;;;;;;;;742.60;1280.00;;;;;;5092134;28;19916;-57
2022/07/10 10:47:59;;;;;;;;;;;717.60;1254.40;;;;;;5091788;28;20376;-58
2022/07/10 10:50:41;;;;;;;;;;;742.40;1254.40;;;;;;5091902;28;19908;-58
2022/07/10 10:53:14;;;;;;;;;;;742.50;1305.60;;;;;;5091869;28;19912;-59
2022/07/10 10:55:41;;;;;;;;;;;742.50;1280.00;;;;;;5091755;28;19919;-58
2022/07/10 10:58:17;;;;;;;;;;;742.60;1254.40;;;;;;5091657;28;19918;-57
2022/07/10 11:00:43;;;;;;;;;;;742.80;1254.40;;;;;;5091294;28;19927;-58
2022/07/10 11:03:16;;;;;;;;;;;742.90;1228.80;;;;;;5091794;28;20270;-58
2022/07/10 11:05:43;;;;;;;;;;;743.00;1228.80;;;;;;5091618;28;20044;-58
2022/07/10 11:08:08;;;;;;;;;;;743.20;1228.80;;;;;;5091536;28;19912;-58
2022/07/10 11:10:38;;;;;;;;;;;742.70;1254.40;;;;;;5091064;28;19913;-59
2022/07/10 11:13:10;;;;;;;;;;;742.50;1254.40;;;;;;5091136;28;19912;-58
2022/07/10 11:15:37;;;;;;;;;;;742.40;1228.80;;;;;;5091332;28;19962;-58
2022/07/10 11:18:02;;;;;;;;;;;742.40;1280.00;;;;;;5090607;28;20353;-58
2022/07/10 11:20:31;;;;;;;;;;;742.40;1254.40;;;;;;5091340;28;19915;-57
2022/07/10 11:23:12;;;;;;;;;;;742.40;1280.00;;;;;;5091471;28;19908;-58
2022/07/10 11:26:09;;;;;;;;;;;717.70;1228.80;;;;;;5091113;28;19923;-58
2022/07/10 11:28:41;;;;;;;;;;;717.50;1254.40;;;;;;5090938;28;19947;-57
2022/07/10 11:31:06;;;;;;;;;;;742.70;1280.00;;;;;;5091138;28;20041;-57
2022/07/10 11:33:46;;;;;;;;;;;742.90;1228.80;;;;;;5090952;28;20345;-58
2022/07/10 11:36:25;;;;;;;;;;;742.70;1280.00;;;;;;5090772;28;19995;-58
2022/07/10 11:39:01;;;;;;;;;;;742.80;1254.40;;;;;;5091187;28;19908;-57
2022/07/10 11:41:28;;;;;;;;;;;742.80;1254.40;;;;;;5090912;28;20319;-58
2022/07/10 11:43:55;;;;;;;;;;;742.80;1280.00;;;;;;5090641;28;19913;-59
2022/07/10 11:46:21;;;;;;;;;;;742.80;1254.40;;;;;;5090815;28;20353;-58
2022/07/10 11:48:49;;;;;;;;;;;742.50;1254.40;;;;;;5090798;28;19908;-58
2022/07/10 11:51:24;;;;;;;;;;;742.40;1280.00;;;;;;5090891;28;20270;-57
2022/07/10 11:53:58;;;;;;;;;;;717.50;1228.80;;;;;;5090706;28;19919;-57
2022/07/10 11:56:24;;;;;;;;;;;717.20;1254.40;;;;;;5089901;28;19959;-58
2022/07/10 11:58:55;;;;;;;;;;;717.50;1228.80;;;;;;5089596;28;20003;-57
2022/07/10 12:01:21;;;;;;;;;;;717.70;1228.80;;;;;;5090611;28;20397;-58
2022/07/10 12:04:04;;;;;;;;;;;717.70;1254.40;;;;;;5090721;28;19919;-58
2022/07/10 12:06:31;;;;;;;;;;;742.40;1280.00;;;;;;5090820;28;20007;-57
2022/07/10 12:09:01;;;;;;;;;;;717.60;1254.40;;;;;;5090546;28;19912;-57
2022/07/10 12:11:26;;;;;;;;;;;717.50;1254.40;;;;;;5090473;28;20013;-58
2022/07/10 12:13:54;;;;;;;;;;;717.50;1280.00;;;;;;5090307;28;20364;-58
2022/07/10 12:16:19;;;;;;;;;;;717.70;1280.00;;;;;;5088069;28;19920;-58
2022/07/10 12:18:45;;;;;;;;;;;717.70;1305.60;;;;;;5088618;28;19934;-57
2022/07/10 12:21:12;;;;;;;;;;;742.40;1331.20;;;;;;5088921;28;19960;-58
2022/07/10 12:23:39;;;;;;;;;;;717.70;1305.60;;;;;;5087368;28;19909;-58
2022/07/10 12:26:07;;;;;;;;;;;717.50;1331.20;;;;;;5088714;28;19923;-58
2022/07/10 12:28:47;;;;;;;;;;;717.40;1331.20;;;;;;5089101;28;19912;-58
2022/07/10 12:31:19;;;;;;;;;;;717.50;1331.20;;;;;;5092629;28;19919;-57
2022/07/10 12:33:49;;;;;;;;;;;717.10;1305.60;;;;;;5092811;28;19992;-58
2022/07/10 12:36:15;;;;;;;;;;;717.20;1331.20;;;;;;5092702;28;19918;-57
2022/07/10 12:38:40;;;;;;;;;;;717.20;1305.60;;;;;;5092579;28;20270;-58
2022/07/10 12:41:13;;;;;;;;;;;717.10;1305.60;;;;;;5092350;28;19916;-57
2022/07/10 12:43:39;;;;;;;;;;;717.40;1305.60;;;;;;5092710;28;19916;-58
2022/07/10 12:46:20;;;;;;;;;;;717.70;1305.60;;;;;;5092366;28;20305;-58
2022/07/10 12:49:04;;;;;;;;;;;717.50;1280.00;;;;;;5092661;28;20013;-58
2022/07/10 12:51:31;;;;;;;;;;;717.40;1305.60;;;;;;5092569;28;19916;-59
2022/07/10 12:53:56;;;;;;;;;;;717.10;1305.60;;;;;;5092269;28;20061;-58
2022/07/10 12:56:29;;;;;;;;;;;716.90;1305.60;;;;;;5092118;28;20014;-58
2022/07/10 12:58:55;;;;;;;;;;;716.90;1331.20;;;;;;5092203;28;20053;-58
2022/07/10 13:01:21;;;;;;;;;;;716.90;1331.20;;;;;;5092099;28;20020;-58
2022/07/10 13:03:46;;;;;;;;;;;717.10;1331.20;;;;;;5092393;28;19908;-58
2022/07/10 13:06:28;;;;;;;;;;;717.50;1305.60;;;;;;5092130;28;20045;-58
2022/07/10 13:08:54;;;;;;;;;;;717.70;1305.60;;;;;;5091495;28;19918;-57
2022/07/10 13:11:20;;;;;;;;;;;717.70;1331.20;;;;;;5092231;28;19994;-58
2022/07/10 13:13:45;;;;;;;;;;;717.70;1280.00;;;;;;5091926;28;20327;-57
2022/07/10 13:16:11;;;;;;;;;;;717.50;1305.60;;;;;;5091811;28;19934;-59
2022/07/10 13:18:36;;;;;;;;;;;717.40;1305.60;;;;;;5092211;28;19909;-58
2022/07/10 13:21:03;;;;;;;;;;;717.40;1280.00;;;;;;5091324;28;19912;-57
2022/07/10 13:23:29;;;;;;;;;;;717.50;1305.60;;;;;;5091960;28;20354;-57
2022/07/10 13:25:55;;;;;;;;;;;717.30;1305.60;;;;;;5091913;28;19916;-57
2022/07/10 13:28:21;;;;;;;;;;;716.90;1305.60;;;;;;5091714;28;19912;-58
2022/07/10 13:30:47;;;;;;;;;;;716.80;1305.60;;;;;;5092027;28;19914;-57
2022/07/10 13:33:13;;;;;;;;;;;692.10;1305.60;;;;;;5091131;28;19958;-59
2022/07/10 13:35:39;;;;;;;;;;;691.80;1280.00;;;;;;5091846;28;19913;-58
2022/07/10 13:38:05;;;;;;;;;;;691.60;1280.00;;;;;;5091467;28;20467;-57
2022/07/10 13:40:31;;;;;;;;;;;691.70;1280.00;;;;;;5090613;28;20408;-58
2022/07/10 13:42:57;;;;;;;;;;;691.60;1280.00;;;;;;5091632;28;20373;-59
2022/07/10 13:45:36;;;;;;;;;;;691.40;1280.00;;;;;;5091145;28;19955;-57
2022/07/10 13:48:02;;;;;;;;;;;691.30;1305.60;;;;;;5090993;28;19915;-58
2022/07/10 13:50:28;;;;;;;;;;;691.30;1305.60;;;;;;5091650;28;19908;-57
2022/07/10 13:52:54;;;;;;;;;;;691.40;1331.20;;;;;;5091096;28;19908;-57
2022/07/10 13:55:19;;;;;;;;;;;691.40;1331.20;;;;;;5091653;28;20053;-57